sensor_id;sensor_type;location;lat;lon;timestamp;pressure;altitude;pressure_sealevel;temperature;humidity
26563;BME280;14217;50.986;5.826;2022-12-29T00:01:32;99622.94;;;17.76;45.63
26563;BME280;14217;50.986;5.826;2022-12-29T00:06:34;99608.44;;;17.67;45.71
26563;BME280;14217;50.986;5.826;2022-12-29T00:11:36;99596.44;;;17.76;45.77
26563;BME280;14217;50.986;5.826;2022-12-29T00:16:41;99596.34;;;17.77;45.70
26563;BME280;14217;50.986;5.826;2022-12-29T00:21:44;99589.25;;;17.78;45.62
26563;BME280;14217;50.986;5.826;2022-12-29T00:32:25;99582.34;;;17.75;46.35
26563;BME280;14217;50.986;5.826;2022-12-29T00:37:47;99583.47;;;17.71;46.45
26563;BME280;14217;50.986;5.826;2022-12-29T00:43:07;99566.91;;;17.67;46.42
26563;BME280;14217;50.986;5.826;2022-12-29T00:48:28;99574.47;;;17.74;46.28
26563;BME280;14217;50.986;5.826;2022-12-29T00:53:48;99576.28;;;17.73;46.43
26563;BME280;14217;50.986;5.826;2022-12-29T00:58:50;99565.41;;;17.78;46.16
26563;BME280;14217;50.986;5.826;2022-12-29T01:03:52;99572.81;;;17.87;45.81
26563;BME280;14217;50.986;5.826;2022-12-29T01:09:00;99566.75;;;17.85;46.12
26563;BME280;14217;50.986;5.826;2022-12-29T01:14:22;99558.38;;;17.77;46.01
26563;BME280;14217;50.986;5.826;2022-12-29T01:19:24;99562.75;;;17.78;46.12
26563;BME280;14217;50.986;5.826;2022-12-29T01:24:26;99544.97;;;17.65;46.61
26563;BME280;14217;50.986;5.826;2022-12-29T01:29:28;99534.91;;;17.71;46.34
26563;BME280;14217;50.986;5.826;2022-12-29T01:34:30;99546.00;;;17.77;46.12
26563;BME280;14217;50.986;5.826;2022-12-29T01:39:32;99548.53;;;17.79;46.21
26563;BME280;14217;50.986;5.826;2022-12-29T01:44:55;99555.94;;;17.74;46.39
26563;BME280;14217;50.986;5.826;2022-12-29T01:50:12;99554.97;;;17.75;46.33
26563;BME280;14217;50.986;5.826;2022-12-29T01:55:19;99558.38;;;17.77;46.36
26563;BME280;14217;50.986;5.826;2022-12-29T02:00:21;99559.34;;;17.76;46.15
26563;BME280;14217;50.986;5.826;2022-12-29T02:05:29;99550.09;;;17.83;46.30
26563;BME280;14217;50.986;5.826;2022-12-29T02:10:35;99541.72;;;17.75;46.45
26563;BME280;14217;50.986;5.826;2022-12-29T02:32:08;99537.19;;;17.77;46.42
26563;BME280;14217;50.986;5.826;2022-12-29T02:37:20;99518.66;;;17.77;46.26
26563;BME280;14217;50.986;5.826;2022-12-29T02:42:26;99508.72;;;17.80;46.19
26563;BME280;14217;50.986;5.826;2022-12-29T02:52:40;99494.81;;;17.77;46.39
26563;BME280;14217;50.986;5.826;2022-12-29T02:57:44;99490.00;;;17.69;46.55
26563;BME280;14217;50.986;5.826;2022-12-29T03:08:34;99486.78;;;17.78;46.54
26563;BME280;14217;50.986;5.826;2022-12-29T03:13:45;99479.97;;;17.74;46.61
26563;BME280;14217;50.986;5.826;2022-12-29T03:24:19;99475.34;;;17.78;46.51
26563;BME280;14217;50.986;5.826;2022-12-29T03:29:22;99467.69;;;17.73;46.64
26563;BME280;14217;50.986;5.826;2022-12-29T03:34:25;99466.25;;;17.82;46.17
26563;BME280;14217;50.986;5.826;2022-12-29T03:39:28;99466.91;;;17.85;46.20
26563;BME280;14217;50.986;5.826;2022-12-29T03:44:39;99455.47;;;17.85;46.11
26563;BME280;14217;50.986;5.826;2022-12-29T03:49:42;99460.47;;;17.90;46.00
26563;BME280;14217;50.986;5.826;2022-12-29T03:54:44;99451.13;;;17.84;46.15
26563;BME280;14217;50.986;5.826;2022-12-29T03:59:45;99443.19;;;17.84;46.46
26563;BME280;14217;50.986;5.826;2022-12-29T04:04:47;99454.13;;;17.78;46.53
26563;BME280;14217;50.986;5.826;2022-12-29T04:09:49;99473.16;;;17.84;46.20
26563;BME280;14217;50.986;5.826;2022-12-29T04:14:51;99468.22;;;17.78;46.61
26563;BME280;14217;50.986;5.826;2022-12-29T04:19:53;99489.34;;;17.80;46.68
26563;BME280;14217;50.986;5.826;2022-12-29T04:25:15;99498.03;;;17.82;46.68
26563;BME280;14217;50.986;5.826;2022-12-29T04:30:18;99505.06;;;17.83;46.56
26563;BME280;14217;50.986;5.826;2022-12-29T04:35:20;99505.22;;;17.80;46.65
26563;BME280;14217;50.986;5.826;2022-12-29T04:40:22;99493.63;;;17.82;46.47
26563;BME280;14217;50.986;5.826;2022-12-29T04:45:25;99501.72;;;17.79;46.50
26563;BME280;14217;50.986;5.826;2022-12-29T04:50:27;99497.09;;;17.83;46.49
26563;BME280;14217;50.986;5.826;2022-12-29T04:55:29;99504.25;;;17.81;46.57
26563;BME280;14217;50.986;5.826;2022-12-29T05:00:30;99507.03;;;17.79;46.55
26563;BME280;14217;50.986;5.826;2022-12-29T05:05:32;99531.91;;;17.77;46.79
26563;BME280;14217;50.986;5.826;2022-12-29T05:10:34;99552.06;;;17.79;46.66
26563;BME280;14217;50.986;5.826;2022-12-29T05:15:36;99551.19;;;17.79;46.50
26563;BME280;14217;50.986;5.826;2022-12-29T05:20:38;99549.53;;;17.92;46.09
26563;BME280;14217;50.986;5.826;2022-12-29T05:25:40;99546.97;;;17.91;46.18
26563;BME280;14217;50.986;5.826;2022-12-29T05:30:42;99550.56;;;17.90;46.15
26563;BME280;14217;50.986;5.826;2022-12-29T05:35:44;99542.91;;;17.85;46.50
26563;BME280;14217;50.986;5.826;2022-12-29T05:40:46;99542.06;;;17.84;46.39
26563;BME280;14217;50.986;5.826;2022-12-29T05:45:48;99539.31;;;17.86;46.38
26563;BME280;14217;50.986;5.826;2022-12-29T05:50:51;99547.44;;;17.83;46.51
26563;BME280;14217;50.986;5.826;2022-12-29T05:55:53;99549.16;;;17.84;46.51
26563;BME280;14217;50.986;5.826;2022-12-29T06:00:55;99555.47;;;17.96;46.30
26563;BME280;14217;50.986;5.826;2022-12-29T06:05:57;99563.94;;;17.88;46.51
26563;BME280;14217;50.986;5.826;2022-12-29T06:10:59;99567.59;;;17.85;46.56
26563;BME280;14217;50.986;5.826;2022-12-29T06:16:01;99579.53;;;17.93;46.28
26563;BME280;14217;50.986;5.826;2022-12-29T06:21:04;99594.19;;;17.84;46.36
26563;BME280;14217;50.986;5.826;2022-12-29T06:26:07;99585.75;;;17.92;46.15
26563;BME280;14217;50.986;5.826;2022-12-29T06:31:10;99602.41;;;17.94;46.17
26563;BME280;14217;50.986;5.826;2022-12-29T06:36:12;99599.63;;;17.81;46.69
26563;BME280;14217;50.986;5.826;2022-12-29T06:41:14;99612.88;;;17.81;46.66
26563;BME280;14217;50.986;5.826;2022-12-29T06:46:16;99625.78;;;17.87;46.57
26563;BME280;14217;50.986;5.826;2022-12-29T06:51:17;99610.09;;;17.84;46.55
26563;BME280;14217;50.986;5.826;2022-12-29T06:56:19;99628.66;;;17.84;46.64
26563;BME280;14217;50.986;5.826;2022-12-29T07:01:21;99629.88;;;17.93;46.38
26563;BME280;14217;50.986;5.826;2022-12-29T07:06:23;99636.03;;;17.93;46.08
26563;BME280;14217;50.986;5.826;2022-12-29T07:11:25;99645.19;;;17.87;46.61
26563;BME280;14217;50.986;5.826;2022-12-29T07:16:27;99640.84;;;17.86;46.29
26563;BME280;14217;50.986;5.826;2022-12-29T07:21:30;99656.75;;;17.86;46.43
26563;BME280;14217;50.986;5.826;2022-12-29T07:26:32;99665.47;;;17.88;46.76
26563;BME280;14217;50.986;5.826;2022-12-29T07:31:36;99662.88;;;17.87;46.75
26563;BME280;14217;50.986;5.826;2022-12-29T07:36:38;99673.69;;;17.84;47.10
26563;BME280;14217;50.986;5.826;2022-12-29T07:41:40;99662.84;;;17.73;47.41
26563;BME280;14217;50.986;5.826;2022-12-29T07:46:42;99677.88;;;17.88;46.79
26563;BME280;14217;50.986;5.826;2022-12-29T07:51:58;99671.44;;;17.92;46.82
26563;BME280;14217;50.986;5.826;2022-12-29T07:56:59;99682.50;;;17.99;47.09
26563;BME280;14217;50.986;5.826;2022-12-29T08:02:02;99693.09;;;17.99;46.80
26563;BME280;14217;50.986;5.826;2022-12-29T08:07:04;99698.38;;;17.84;47.17
26563;BME280;14217;50.986;5.826;2022-12-29T08:12:09;99705.28;;;17.87;47.10
26563;BME280;14217;50.986;5.826;2022-12-29T08:17:11;99718.53;;;17.87;46.85
26563;BME280;14217;50.986;5.826;2022-12-29T08:22:14;99703.59;;;17.86;46.95
26563;BME280;14217;50.986;5.826;2022-12-29T08:27:17;99720.13;;;17.90;46.81
26563;BME280;14217;50.986;5.826;2022-12-29T08:32:21;99724.44;;;17.92;46.83
26563;BME280;14217;50.986;5.826;2022-12-29T08:37:23;99729.56;;;17.79;47.46
26563;BME280;14217;50.986;5.826;2022-12-29T08:42:31;99724.81;;;17.70;48.27
26563;BME280;14217;50.986;5.826;2022-12-29T08:47:33;99733.88;;;17.66;49.00
26563;BME280;14217;50.986;5.826;2022-12-29T08:52:35;99739.03;;;17.53;49.79
26563;BME280;14217;50.986;5.826;2022-12-29T08:57:37;99737.41;;;17.81;49.07
26563;BME280;14217;50.986;5.826;2022-12-29T09:02:39;99756.47;;;17.87;48.58
26563;BME280;14217;50.986;5.826;2022-12-29T09:07:41;99752.91;;;17.88;48.42
26563;BME280;14217;50.986;5.826;2022-12-29T09:12:43;99760.13;;;18.01;48.10
26563;BME280;14217;50.986;5.826;2022-12-29T09:17:45;99765.97;;;17.92;48.07
26563;BME280;14217;50.986;5.826;2022-12-29T09:22:47;99758.88;;;17.92;47.85
26563;BME280;14217;50.986;5.826;2022-12-29T09:27:50;99777.78;;;17.86;47.83
26563;BME280;14217;50.986;5.826;2022-12-29T09:32:54;99785.94;;;17.81;47.99
26563;BME280;14217;50.986;5.826;2022-12-29T09:37:56;99777.09;;;17.82;47.78
26563;BME280;14217;50.986;5.826;2022-12-29T09:48:30;99790.84;;;17.89;47.52
26563;BME280;14217;50.986;5.826;2022-12-29T09:59:10;99784.69;;;17.88;47.24
26563;BME280;14217;50.986;5.826;2022-12-29T10:04:16;99791.44;;;17.94;47.29
26563;BME280;14217;50.986;5.826;2022-12-29T10:09:36;99798.34;;;17.81;47.84
26563;BME280;14217;50.986;5.826;2022-12-29T10:15:04;99820.59;;;17.78;47.76
26563;BME280;14217;50.986;5.826;2022-12-29T10:20:51;99831.72;;;17.85;47.46
26563;BME280;14217;50.986;5.826;2022-12-29T10:25:56;99820.75;;;17.91;46.29
26563;BME280;14217;50.986;5.826;2022-12-29T10:30:59;99824.00;;;17.80;47.05
26563;BME280;14217;50.986;5.826;2022-12-29T10:36:16;99839.66;;;17.85;46.93
26563;BME280;14217;50.986;5.826;2022-12-29T10:41:23;99844.97;;;17.85;46.81
26563;BME280;14217;50.986;5.826;2022-12-29T10:46:35;99854.28;;;17.92;46.45
26563;BME280;14217;50.986;5.826;2022-12-29T10:51:39;99843.06;;;17.87;46.43
26563;BME280;14217;50.986;5.826;2022-12-29T10:56:53;99862.47;;;17.87;46.33
26563;BME280;14217;50.986;5.826;2022-12-29T11:07:16;99872.50;;;17.82;46.42
26563;BME280;14217;50.986;5.826;2022-12-29T11:12:25;99893.16;;;17.92;45.81
26563;BME280;14217;50.986;5.826;2022-12-29T11:17:27;99884.44;;;17.74;46.28
26563;BME280;14217;50.986;5.826;2022-12-29T11:22:29;99881.34;;;17.81;46.04
26563;BME280;14217;50.986;5.826;2022-12-29T11:27:31;99883.94;;;17.99;45.74
26563;BME280;14217;50.986;5.826;2022-12-29T11:32:34;99899.75;;;17.84;46.16
26563;BME280;14217;50.986;5.826;2022-12-29T11:37:39;99900.19;;;17.93;45.76
26563;BME280;14217;50.986;5.826;2022-12-29T11:42:51;99917.78;;;17.94;45.63
26563;BME280;14217;50.986;5.826;2022-12-29T11:47:58;99925.84;;;17.92;45.86
26563;BME280;14217;50.986;5.826;2022-12-29T11:53:27;99921.03;;;17.99;45.87
26563;BME280;14217;50.986;5.826;2022-12-29T11:58:35;99919.91;;;17.87;46.48
26563;BME280;14217;50.986;5.826;2022-12-29T12:03:44;99927.59;;;17.76;46.64
26563;BME280;14217;50.986;5.826;2022-12-29T12:08:53;99915.88;;;17.80;46.28
26563;BME280;14217;50.986;5.826;2022-12-29T12:14:21;99925.91;;;17.91;45.83
26563;BME280;14217;50.986;5.826;2022-12-29T12:19:44;99928.97;;;17.83;45.93
26563;BME280;14217;50.986;5.826;2022-12-29T12:24:59;99927.78;;;17.88;45.41
26563;BME280;14217;50.986;5.826;2022-12-29T12:35:11;99928.81;;;17.86;45.48
26563;BME280;14217;50.986;5.826;2022-12-29T12:51:33;99925.84;;;17.92;45.23
26563;BME280;14217;50.986;5.826;2022-12-29T12:57:01;99924.53;;;17.83;45.61
26563;BME280;14217;50.986;5.826;2022-12-29T13:02:32;99928.22;;;17.97;44.90
26563;BME280;14217;50.986;5.826;2022-12-29T13:28:53;99937.63;;;17.86;45.16
26563;BME280;14217;50.986;5.826;2022-12-29T13:34:28;99931.97;;;17.93;45.01
26563;BME280;14217;50.986;5.826;2022-12-29T13:39:47;99933.59;;;17.95;44.92
26563;BME280;14217;50.986;5.826;2022-12-29T13:44:57;99945.31;;;17.91;45.07
26563;BME280;14217;50.986;5.826;2022-12-29T13:50:02;99960.09;;;17.95;45.35
26563;BME280;14217;50.986;5.826;2022-12-29T14:00:50;99964.97;;;17.87;45.53
26563;BME280;14217;50.986;5.826;2022-12-29T14:06:31;99962.25;;;17.88;45.14
26563;BME280;14217;50.986;5.826;2022-12-29T14:11:38;99964.72;;;17.92;45.11
26563;BME280;14217;50.986;5.826;2022-12-29T14:16:41;99985.25;;;17.88;45.30
26563;BME280;14217;50.986;5.826;2022-12-29T14:21:59;99992.56;;;17.83;45.13
26563;BME280;14217;50.986;5.826;2022-12-29T14:37:35;99997.47;;;17.57;47.69
26563;BME280;14217;50.986;5.826;2022-12-29T14:42:41;100004.59;;;17.73;48.25
26563;BME280;14217;50.986;5.826;2022-12-29T14:47:46;99996.56;;;17.74;48.98
26563;BME280;14217;50.986;5.826;2022-12-29T14:58:06;100008.19;;;17.72;49.82
26563;BME280;14217;50.986;5.826;2022-12-29T15:03:24;100004.25;;;17.63;50.24
26563;BME280;14217;50.986;5.826;2022-12-29T15:08:32;100002.38;;;17.65;50.14
26563;BME280;14217;50.986;5.826;2022-12-29T15:13:37;100003.22;;;17.65;50.29
26563;BME280;14217;50.986;5.826;2022-12-29T15:18:39;100014.41;;;17.71;50.16
26563;BME280;14217;50.986;5.826;2022-12-29T15:23:44;100010.91;;;17.70;50.68
26563;BME280;14217;50.986;5.826;2022-12-29T15:28:46;100027.16;;;17.80;51.11
26563;BME280;14217;50.986;5.826;2022-12-29T15:33:51;100020.47;;;17.73;50.10
26563;BME280;14217;50.986;5.826;2022-12-29T15:38:54;100024.16;;;17.70;49.70
26563;BME280;14217;50.986;5.826;2022-12-29T15:44:11;100033.72;;;17.73;49.19
26563;BME280;14217;50.986;5.826;2022-12-29T15:49:18;100041.84;;;17.70;48.78
26563;BME280;14217;50.986;5.826;2022-12-29T15:54:22;100024.09;;;17.72;48.15
26563;BME280;14217;50.986;5.826;2022-12-29T15:59:32;100058.44;;;17.73;47.92
26563;BME280;14217;50.986;5.826;2022-12-29T16:04:35;100060.22;;;17.73;47.64
26563;BME280;14217;50.986;5.826;2022-12-29T16:09:59;100065.84;;;17.66;47.64
26563;BME280;14217;50.986;5.826;2022-12-29T16:15:03;100075.19;;;17.74;47.66
26563;BME280;14217;50.986;5.826;2022-12-29T16:20:17;100073.66;;;17.70;47.45
26563;BME280;14217;50.986;5.826;2022-12-29T16:25:22;100080.16;;;17.80;47.20
26563;BME280;14217;50.986;5.826;2022-12-29T16:30:28;100085.63;;;17.77;47.17
26563;BME280;14217;50.986;5.826;2022-12-29T16:35:45;100092.56;;;17.79;46.91
26563;BME280;14217;50.986;5.826;2022-12-29T16:40:56;100103.91;;;17.81;46.77
26563;BME280;14217;50.986;5.826;2022-12-29T16:51:03;100108.91;;;17.87;46.42
26563;BME280;14217;50.986;5.826;2022-12-29T16:56:17;100129.28;;;17.87;46.49
26563;BME280;14217;50.986;5.826;2022-12-29T17:01:19;100123.25;;;17.83;46.48
26563;BME280;14217;50.986;5.826;2022-12-29T17:06:22;100133.91;;;17.99;45.87
26563;BME280;14217;50.986;5.826;2022-12-29T17:11:27;100147.44;;;17.95;45.78
26563;BME280;14217;50.986;5.826;2022-12-29T17:16:58;100138.38;;;17.99;45.81
26563;BME280;14217;50.986;5.826;2022-12-29T17:22:02;100147.25;;;17.98;45.72
26563;BME280;14217;50.986;5.826;2022-12-29T17:27:04;100167.22;;;17.87;45.52
26563;BME280;14217;50.986;5.826;2022-12-29T17:32:11;100175.63;;;17.78;45.17
26563;BME280;14217;50.986;5.826;2022-12-29T17:37:26;100191.06;;;17.70;45.45
26563;BME280;14217;50.986;5.826;2022-12-29T17:42:29;100203.38;;;17.71;45.42
26563;BME280;14217;50.986;5.826;2022-12-29T17:47:33;100197.38;;;17.67;45.55
26563;BME280;14217;50.986;5.826;2022-12-29T17:52:35;100207.34;;;17.62;46.01
26563;BME280;14217;50.986;5.826;2022-12-29T17:57:37;100219.91;;;17.76;45.91
26563;BME280;14217;50.986;5.826;2022-12-29T18:02:39;100209.22;;;17.78;45.87
26563;BME280;14217;50.986;5.826;2022-12-29T18:07:41;100211.25;;;17.73;46.02
26563;BME280;14217;50.986;5.826;2022-12-29T18:12:46;100209.69;;;17.68;45.86
26563;BME280;14217;50.986;5.826;2022-12-29T18:17:53;100224.47;;;17.73;45.87
26563;BME280;14217;50.986;5.826;2022-12-29T18:22:55;100228.88;;;17.74;46.00
26563;BME280;14217;50.986;5.826;2022-12-29T18:27:59;100243.41;;;17.84;45.54
26563;BME280;14217;50.986;5.826;2022-12-29T18:33:01;100243.41;;;17.84;45.69
26563;BME280;14217;50.986;5.826;2022-12-29T18:38:04;100245.78;;;17.71;46.54
26563;BME280;14217;50.986;5.826;2022-12-29T18:43:12;100244.28;;;17.65;46.28
26563;BME280;14217;50.986;5.826;2022-12-29T18:48:15;100241.56;;;17.67;46.56
26563;BME280;14217;50.986;5.826;2022-12-29T18:53:22;100242.72;;;17.61;46.26
26563;BME280;14217;50.986;5.826;2022-12-29T18:58:24;100257.00;;;17.76;45.78
26563;BME280;14217;50.986;5.826;2022-12-29T19:03:34;100253.69;;;17.90;45.30
26563;BME280;14217;50.986;5.826;2022-12-29T19:08:36;100271.75;;;17.99;45.07
26563;BME280;14217;50.986;5.826;2022-12-29T19:13:38;100262.06;;;18.16;44.55
26563;BME280;14217;50.986;5.826;2022-12-29T19:18:41;100256.81;;;17.98;44.96
26563;BME280;14217;50.986;5.826;2022-12-29T19:23:47;100257.41;;;18.03;44.83
26563;BME280;14217;50.986;5.826;2022-12-29T19:28:49;100271.19;;;18.10;44.51
26563;BME280;14217;50.986;5.826;2022-12-29T19:33:51;100263.88;;;17.98;45.02
26563;BME280;14217;50.986;5.826;2022-12-29T19:38:54;100270.94;;;17.80;45.51
26563;BME280;14217;50.986;5.826;2022-12-29T19:43:56;100277.66;;;17.70;45.84
26563;BME280;14217;50.986;5.826;2022-12-29T19:48:59;100292.44;;;17.74;45.61
26563;BME280;14217;50.986;5.826;2022-12-29T19:54:01;100298.59;;;17.74;45.33
26563;BME280;14217;50.986;5.826;2022-12-29T19:59:03;100301.25;;;17.74;45.46
26563;BME280;14217;50.986;5.826;2022-12-29T20:04:04;100315.50;;;17.91;44.96
26563;BME280;14217;50.986;5.826;2022-12-29T20:09:06;100322.50;;;17.92;44.96
26563;BME280;14217;50.986;5.826;2022-12-29T20:14:08;100309.44;;;17.70;45.12
26563;BME280;14217;50.986;5.826;2022-12-29T20:19:10;100306.91;;;17.66;45.40
26563;BME280;14217;50.986;5.826;2022-12-29T20:24:12;100307.25;;;17.60;45.80
26563;BME280;14217;50.986;5.826;2022-12-29T20:29:14;100296.97;;;17.72;47.15
26563;BME280;14217;50.986;5.826;2022-12-29T20:34:17;100296.75;;;17.76;46.17
26563;BME280;14217;50.986;5.826;2022-12-29T20:39:20;100313.94;;;17.67;46.52
26563;BME280;14217;50.986;5.826;2022-12-29T20:44:22;100316.72;;;17.83;46.24
26563;BME280;14217;50.986;5.826;2022-12-29T20:49:24;100321.72;;;17.90;45.82
26563;BME280;14217;50.986;5.826;2022-12-29T20:54:26;100325.66;;;17.81;46.90
26563;BME280;14217;50.986;5.826;2022-12-29T20:59:32;100331.03;;;17.79;46.76
26563;BME280;14217;50.986;5.826;2022-12-29T21:04:34;100336.81;;;17.87;45.90
26563;BME280;14217;50.986;5.826;2022-12-29T21:09:55;100332.47;;;17.86;45.85
26563;BME280;14217;50.986;5.826;2022-12-29T21:14:58;100322.31;;;17.77;45.70
26563;BME280;14217;50.986;5.826;2022-12-29T21:19:59;100332.69;;;17.82;45.48
26563;BME280;14217;50.986;5.826;2022-12-29T21:25:01;100330.03;;;17.82;45.41
26563;BME280;14217;50.986;5.826;2022-12-29T21:30:03;100341.00;;;17.74;45.30
26563;BME280;14217;50.986;5.826;2022-12-29T21:35:06;100331.34;;;17.73;45.06
26563;BME280;14217;50.986;5.826;2022-12-29T21:40:08;100345.97;;;17.63;45.29
26563;BME280;14217;50.986;5.826;2022-12-29T21:45:10;100351.03;;;17.67;45.17
26563;BME280;14217;50.986;5.826;2022-12-29T21:50:28;100360.91;;;17.64;45.38
26563;BME280;14217;50.986;5.826;2022-12-29T21:55:30;100366.38;;;17.61;45.45
26563;BME280;14217;50.986;5.826;2022-12-29T22:00:31;100362.25;;;17.73;44.89
26563;BME280;14217;50.986;5.826;2022-12-29T22:05:53;100365.56;;;17.78;44.93
26563;BME280;14217;50.986;5.826;2022-12-29T22:11:13;100351.16;;;17.64;45.00
26563;BME280;14217;50.986;5.826;2022-12-29T22:16:34;100355.09;;;17.75;45.01
26563;BME280;14217;50.986;5.826;2022-12-29T22:21:36;100360.56;;;17.72;45.27
26563;BME280;14217;50.986;5.826;2022-12-29T22:26:38;100355.75;;;17.80;45.42
26563;BME280;14217;50.986;5.826;2022-12-29T22:31:39;100368.91;;;17.81;45.46
26563;BME280;14217;50.986;5.826;2022-12-29T22:36:42;100383.69;;;17.87;46.07
26563;BME280;14217;50.986;5.826;2022-12-29T22:41:43;100376.53;;;18.06;45.30
26563;BME280;14217;50.986;5.826;2022-12-29T22:46:45;100390.97;;;17.82;46.27
26563;BME280;14217;50.986;5.826;2022-12-29T22:51:47;100406.47;;;17.91;45.65
26563;BME280;14217;50.986;5.826;2022-12-29T22:56:49;100400.00;;;17.97;45.34
26563;BME280;14217;50.986;5.826;2022-12-29T23:01:51;100414.66;;;18.04;45.04
26563;BME280;14217;50.986;5.826;2022-12-29T23:06:53;100426.03;;;17.88;45.35
26563;BME280;14217;50.986;5.826;2022-12-29T23:11:55;100414.53;;;18.07;44.82
26563;BME280;14217;50.986;5.826;2022-12-29T23:16:57;100423.47;;;18.04;44.90
26563;BME280;14217;50.986;5.826;2022-12-29T23:21:59;100431.66;;;18.00;44.66
26563;BME280;14217;50.986;5.826;2022-12-29T23:27:01;100446.63;;;18.01;44.79
26563;BME280;14217;50.986;5.826;2022-12-29T23:32:03;100450.06;;;18.03;44.70
26563;BME280;14217;50.986;5.826;2022-12-29T23:37:05;100454.13;;;18.10;44.52
26563;BME280;14217;50.986;5.826;2022-12-29T23:42:07;100473.78;;;18.06;44.62
26563;BME280;14217;50.986;5.826;2022-12-29T23:47:09;100459.59;;;18.07;44.59
26563;BME280;14217;50.986;5.826;2022-12-29T23:52:11;100476.41;;;18.06;44.30
26563;BME280;14217;50.986;5.826;2022-12-29T23:57:12;100478.06;;;18.08;44.49
